createdAt,value
2023-02-03T00:02:00.239Z,85.92
2023-02-03T00:04:27.570Z,85.07
2023-02-03T00:06:54.369Z,85.01
2023-02-03T00:09:21.491Z,84.92
2023-02-03T00:11:48.426Z,84.56
2023-02-03T00:14:15.564Z,84.45
2023-02-03T00:16:42.496Z,84.83
2023-02-03T00:19:09.660Z,85.22
2023-02-03T00:21:36.439Z,85.16
2023-02-03T00:24:03.314Z,85.96
2023-02-03T00:26:30.403Z,85.85
2023-02-03T00:28:59.372Z,85.60
2023-02-03T00:31:26.336Z,85.80
2023-02-03T00:33:56.405Z,85.55
2023-02-03T00:36:23.615Z,85.46
2023-02-03T00:38:50.467Z,85.31
2023-02-03T00:41:17.754Z,85.04
2023-02-03T00:43:44.586Z,85.18
2023-02-03T00:46:11.476Z,85.33
2023-02-03T00:48:38.446Z,85.35
2023-02-03T00:51:05.607Z,85.93
2023-02-03T00:53:32.856Z,86.74
2023-02-03T00:56:00.040Z,86.87
2023-02-03T00:58:26.913Z,85.96
2023-02-03T01:00:54.780Z,85.91
2023-02-03T01:03:21.485Z,86.66
2023-02-03T01:05:48.269Z,86.34
2023-02-03T01:08:15.306Z,86.64
2023-02-03T01:10:42.325Z,86.64
2023-02-03T01:13:09.078Z,87.10
2023-02-03T01:15:35.735Z,86.62
2023-02-03T01:18:02.554Z,86.87
2023-02-03T01:20:29.405Z,86.56
2023-02-03T01:22:56.445Z,86.75
2023-02-03T01:25:23.253Z,85.87
2023-02-03T01:27:49.977Z,85.52
2023-02-03T01:30:17.275Z,85.70
2023-02-03T01:32:44.085Z,85.13
2023-02-03T01:35:11.083Z,85.41
2023-02-03T01:37:38.147Z,85.94
2023-02-03T01:40:05.290Z,85.72
2023-02-03T01:42:33.055Z,86.26
2023-02-03T01:45:00.139Z,85.71
2023-02-03T01:47:30.252Z,85.45
2023-02-03T01:50:00.047Z,85.44
2023-02-03T01:52:27.449Z,85.43
2023-02-03T01:54:56.600Z,85.86
2023-02-03T01:57:27.332Z,85.30
2023-02-03T01:59:56.336Z,85.27
2023-02-03T02:02:23.320Z,85.51
2023-02-03T02:04:54.529Z,85.30
2023-02-03T02:07:21.180Z,85.63
2023-02-03T02:09:49.064Z,85.46
2023-02-03T02:12:15.764Z,85.74
2023-02-03T02:14:43.020Z,86.44
2023-02-03T02:17:12.879Z,86.08
2023-02-03T02:19:42.751Z,85.73
2023-02-03T02:22:12.560Z,85.99
2023-02-03T02:24:47.654Z,86.19
2023-02-03T02:27:17.434Z,85.93
2023-02-03T02:29:47.204Z,86.33
2023-02-03T02:32:14.384Z,86.64
2023-02-03T02:34:47.254Z,86.45
2023-02-03T02:37:16.959Z,86.73
2023-02-03T02:39:44.988Z,86.74
2023-02-03T02:42:15.874Z,86.44
2023-02-03T02:44:46.240Z,86.47
2023-02-03T02:47:16.000Z,86.14
2023-02-03T02:49:47.365Z,85.45
2023-02-03T02:52:15.831Z,85.70
2023-02-03T02:54:45.577Z,85.57
2023-02-03T02:57:14.218Z,85.54
2023-02-03T02:59:40.909Z,85.99
2023-02-03T03:02:09.224Z,85.62
2023-02-03T03:04:35.999Z,86.54
2023-02-03T03:07:05.765Z,86.66
2023-02-03T03:09:36.660Z,86.18
2023-02-03T03:12:07.925Z,86.22
2023-02-03T03:14:36.859Z,86.11
2023-02-03T03:17:06.184Z,85.97
2023-02-03T03:19:35.095Z,86.38
2023-02-03T03:22:04.395Z,86.12
2023-02-03T03:24:34.003Z,86.76
2023-02-03T03:27:04.062Z,86.04
2023-02-03T03:29:35.491Z,85.62
2023-02-03T03:32:02.562Z,85.82
2023-02-03T03:34:30.260Z,85.69
2023-02-03T03:37:00.170Z,86.05
2023-02-03T03:39:30.158Z,85.93
2023-02-03T03:42:00.169Z,85.75
2023-02-03T03:44:30.030Z,86.23
2023-02-03T03:47:02.266Z,85.81
2023-02-03T03:49:29.585Z,86.77
2023-02-03T03:51:59.304Z,86.67
2023-02-03T03:54:26.497Z,86.81
2023-02-03T03:56:56.301Z,87.06
2023-02-03T03:59:24.650Z,86.43
2023-02-03T04:01:54.884Z,87.17
2023-02-03T04:04:24.433Z,86.81
2023-02-03T04:06:53.318Z,86.93
2023-02-03T04:09:20.149Z,87.21
2023-02-03T04:11:49.915Z,87.14
2023-02-03T04:14:16.937Z,87.58
2023-02-03T04:16:46.078Z,87.63
2023-02-03T04:19:12.814Z,87.95
2023-02-03T04:21:39.483Z,87.80
2023-02-03T04:24:06.580Z,87.58
2023-02-03T04:26:33.395Z,88.14
2023-02-03T04:29:00.093Z,87.71
2023-02-03T04:31:27.433Z,88.08
2023-02-03T04:33:54.364Z,87.72
2023-02-03T04:36:21.114Z,87.56
2023-02-03T04:38:49.869Z,87.50
2023-02-03T04:41:16.925Z,87.34
2023-02-03T04:43:43.692Z,87.12
2023-02-03T04:46:11.020Z,87.20
2023-02-03T04:48:37.943Z,86.85
2023-02-03T04:51:06.051Z,86.68
2023-02-03T04:53:36.131Z,86.61
2023-02-03T04:56:03.289Z,86.86
2023-02-03T04:58:30.689Z,86.62
2023-02-03T05:00:57.452Z,86.58
2023-02-03T05:03:26.277Z,86.51
2023-02-03T05:05:53.244Z,86.19
2023-02-03T05:08:20.182Z,85.67
2023-02-03T05:10:46.903Z,85.95
2023-02-03T05:13:13.623Z,85.82
2023-02-03T05:15:40.426Z,85.96
2023-02-03T05:18:07.663Z,85.67
2023-02-03T05:20:34.428Z,85.94
2023-02-03T05:23:01.439Z,86.11
2023-02-03T05:25:28.409Z,85.83
2023-02-03T05:27:55.851Z,85.97
2023-02-03T05:30:22.963Z,85.69
2023-02-03T05:32:50.514Z,85.91
2023-02-03T05:35:17.614Z,85.73
2023-02-03T05:37:45.763Z,85.93
2023-02-03T05:40:16.944Z,85.72
2023-02-03T05:42:46.950Z,85.78
2023-02-03T05:45:14.175Z,85.88
2023-02-03T05:47:41.155Z,85.93
2023-02-03T05:50:08.248Z,86.17
2023-02-03T05:52:34.942Z,86.11
2023-02-03T05:55:01.629Z,86.10
2023-02-03T05:57:29.108Z,86.19
2023-02-03T05:59:56.925Z,86.46
2023-02-03T06:02:24.015Z,86.45
2023-02-03T06:04:50.816Z,86.69
2023-02-03T06:07:17.529Z,86.52
2023-02-03T06:09:44.382Z,86.80
2023-02-03T06:12:11.221Z,86.85
2023-02-03T06:14:37.924Z,86.59
2023-02-03T06:17:04.965Z,86.61
2023-02-03T06:19:31.649Z,86.76
2023-02-03T06:21:58.356Z,87.69
2023-02-03T06:24:25.213Z,86.98
2023-02-03T06:26:51.929Z,86.89
2023-02-03T06:29:18.608Z,86.79
2023-02-03T06:31:45.505Z,86.91
2023-02-03T06:34:12.385Z,86.96
2023-02-03T06:36:39.510Z,86.82
2023-02-03T06:39:06.452Z,86.50
2023-02-03T06:41:33.145Z,86.67
2023-02-03T06:43:59.857Z,86.95
2023-02-03T06:46:30.383Z,86.85
2023-02-03T06:48:57.225Z,86.78
2023-02-03T06:51:25.006Z,86.93
2023-02-03T06:53:54.068Z,86.98
2023-02-03T06:56:20.749Z,87.27
2023-02-03T06:58:47.591Z,87.00
2023-02-03T07:01:15.140Z,87.38
2023-02-03T07:03:41.862Z,87.25
2023-02-03T07:06:08.998Z,86.94
2023-02-03T07:08:35.878Z,87.04
2023-02-03T07:11:02.636Z,86.79
2023-02-03T07:13:29.425Z,86.66
2023-02-03T07:15:56.292Z,86.78
2023-02-03T07:21:13.228Z,87.19
2023-02-03T07:23:40.227Z,87.66
2023-02-03T07:26:09.793Z,87.76
2023-02-03T07:28:36.714Z,88.52
2023-02-03T07:31:05.085Z,88.01
2023-02-03T07:33:32.431Z,87.74
2023-02-03T07:36:00.302Z,87.84
2023-02-03T07:38:27.944Z,88.57
2023-02-03T07:40:54.900Z,87.76
2023-02-03T07:43:21.724Z,88.04
2023-02-03T07:45:48.492Z,87.79
2023-02-03T07:48:15.407Z,87.44
2023-02-03T07:50:42.304Z,87.49
2023-02-03T07:53:09.566Z,87.60
2023-02-03T07:55:38.224Z,88.18
2023-02-03T07:58:05.015Z,87.93
2023-02-03T08:00:32.221Z,87.51
2023-02-03T08:02:59.103Z,87.64
2023-02-03T08:05:25.841Z,87.53
2023-02-03T08:07:52.669Z,87.45
2023-02-03T08:10:19.684Z,87.05
2023-02-03T08:12:47.259Z,87.03
2023-02-03T08:15:14.660Z,86.97
2023-02-03T08:17:42.219Z,86.58
2023-02-03T08:20:09.711Z,86.81
2023-02-03T08:22:36.557Z,86.83
2023-02-03T08:25:04.165Z,86.50
2023-02-03T08:27:31.851Z,87.20
2023-02-03T08:29:59.052Z,86.48
2023-02-03T08:32:26.246Z,86.32
2023-02-03T08:34:53.569Z,87.04
2023-02-03T08:37:21.558Z,86.52
2023-02-03T08:39:51.664Z,86.11
2023-02-03T08:42:19.193Z,86.52
2023-02-03T08:44:46.195Z,86.43
2023-02-03T08:47:13.084Z,85.98
2023-02-03T08:49:40.024Z,86.11
2023-02-03T08:52:07.748Z,85.48
2023-02-03T08:54:34.971Z,85.48
2023-02-03T08:57:01.825Z,85.62
2023-02-03T08:59:29.456Z,85.07
2023-02-03T09:01:56.301Z,85.63
2023-02-03T09:04:24.973Z,85.43
2023-02-03T09:06:54.757Z,86.50
2023-02-03T09:09:22.109Z,89.19
2023-02-03T09:11:49.299Z,88.86
2023-02-03T09:14:16.134Z,86.28
2023-02-03T09:16:43.634Z,84.98
2023-02-03T09:19:10.539Z,84.56
2023-02-03T09:21:42.541Z,84.59
2023-02-03T09:24:13.802Z,84.80
2023-02-03T09:26:40.665Z,84.78
2023-02-03T09:29:08.017Z,84.90
2023-02-03T09:31:34.841Z,84.49
2023-02-03T09:34:01.776Z,84.71
2023-02-03T09:36:28.954Z,84.66
2023-02-03T09:38:57.196Z,84.59
2023-02-03T09:41:27.139Z,84.74
2023-02-03T09:43:57.022Z,84.04
2023-02-03T09:46:25.910Z,83.79
2023-02-03T09:48:55.122Z,83.31
2023-02-03T09:51:25.272Z,83.25
2023-02-03T09:53:55.244Z,82.72
2023-02-03T09:56:25.148Z,82.68
2023-02-03T09:58:52.019Z,82.08
2023-02-03T10:01:20.452Z,81.62
2023-02-03T10:03:53.049Z,81.64
2023-02-03T10:06:21.266Z,81.30
2023-02-03T10:08:51.059Z,81.56
2023-02-03T10:11:27.084Z,81.28
2023-02-03T10:14:00.510Z,81.21
2023-02-03T10:16:30.842Z,80.76
2023-02-03T10:18:58.861Z,81.14
2023-02-03T10:21:27.131Z,81.10
2023-02-03T10:23:55.366Z,80.40
2023-02-03T10:26:24.827Z,80.69
2023-02-03T10:28:55.442Z,80.69
2023-02-03T10:31:23.963Z,80.50
2023-02-03T10:33:55.619Z,79.85
2023-02-03T10:36:24.197Z,79.87
2023-02-03T10:38:54.653Z,80.16
2023-02-03T10:41:23.126Z,79.74
2023-02-03T10:43:52.145Z,79.49
2023-02-03T10:46:20.908Z,79.00
2023-02-03T10:48:49.523Z,79.64
2023-02-03T10:51:20.093Z,78.64
2023-02-03T10:53:47.029Z,78.30
2023-02-03T10:56:18.582Z,77.94
2023-02-03T10:58:48.723Z,78.05
2023-02-03T11:01:17.201Z,78.05
2023-02-03T11:03:45.507Z,78.08
2023-02-03T11:06:14.138Z,77.93
2023-02-03T11:08:43.095Z,77.77
2023-02-03T11:11:13.520Z,78.01
2023-02-03T11:13:41.003Z,77.97
2023-02-03T11:16:14.032Z,77.68
2023-02-03T11:18:44.446Z,77.17
2023-02-03T11:21:14.058Z,76.88
2023-02-03T11:23:44.116Z,77.24
2023-02-03T11:26:14.603Z,76.69
2023-02-03T11:28:43.179Z,76.63
2023-02-03T11:31:13.180Z,76.44
2023-02-03T11:33:40.063Z,75.93
2023-02-03T11:36:07.327Z,75.68
2023-02-03T11:38:37.029Z,75.14
2023-02-03T11:41:03.857Z,74.66
2023-02-03T11:43:30.821Z,75.00
2023-02-03T11:46:00.679Z,74.62
2023-02-03T11:48:29.121Z,74.95
2023-02-03T11:51:00.441Z,74.42
2023-02-03T11:53:30.465Z,74.14
2023-02-03T11:56:00.678Z,73.79
2023-02-03T11:58:29.243Z,73.97
2023-02-03T12:00:59.360Z,73.66
2023-02-03T12:03:35.303Z,73.74
2023-02-03T12:06:12.297Z,73.43
2023-02-03T12:08:39.620Z,73.94
2023-02-03T12:11:11.128Z,73.83
2023-02-03T12:13:39.259Z,73.79
2023-02-03T12:16:06.633Z,73.58
2023-02-03T12:18:42.406Z,73.86
2023-02-03T12:21:12.447Z,73.98
2023-02-03T12:23:42.310Z,73.50
2023-02-03T12:26:12.458Z,73.09
2023-02-03T12:28:41.182Z,73.07
2023-02-03T12:31:12.973Z,72.92
2023-02-03T12:33:44.756Z,72.21
2023-02-03T12:36:14.565Z,72.38
2023-02-03T12:38:45.261Z,72.17
2023-02-03T12:41:14.780Z,72.83
2023-02-03T12:43:42.018Z,73.03
2023-02-03T12:46:10.181Z,72.56
2023-02-03T12:48:42.820Z,72.32
2023-02-03T12:51:14.009Z,72.32
2023-02-03T12:53:43.374Z,72.05
2023-02-03T12:56:14.243Z,72.16
2023-02-03T12:58:47.388Z,72.25
2023-02-03T13:01:19.387Z,71.97
2023-02-03T13:03:50.769Z,72.67
2023-02-03T13:06:20.903Z,73.40
2023-02-03T13:08:49.043Z,73.13
2023-02-03T13:11:21.484Z,72.91
2023-02-03T13:13:52.495Z,72.34
2023-02-03T13:16:21.640Z,72.24
2023-02-03T13:18:54.018Z,72.06
2023-02-03T13:21:21.243Z,72.10
2023-02-03T13:23:48.596Z,71.66
2023-02-03T13:26:15.804Z,70.23
2023-02-03T13:28:45.825Z,70.10
2023-02-03T13:31:13.510Z,70.27
2023-02-03T13:33:50.163Z,69.75
2023-02-03T13:36:20.173Z,69.87
2023-02-03T13:38:50.126Z,69.41
2023-02-03T13:41:22.667Z,69.91
2023-02-03T13:43:51.483Z,70.31
2023-02-03T13:46:21.387Z,70.15
2023-02-03T13:48:48.364Z,70.55
2023-02-03T13:51:18.429Z,70.11
2023-02-03T13:53:46.359Z,70.62
2023-02-03T13:56:16.294Z,71.63
2023-02-03T13:58:43.139Z,71.54
2023-02-03T14:01:13.140Z,71.96
2023-02-03T14:03:42.127Z,71.37
2023-02-03T14:06:28.916Z,71.43
2023-02-03T14:08:59.268Z,71.59
2023-02-03T14:11:29.146Z,71.28
2023-02-03T14:14:15.817Z,71.31
2023-02-03T14:16:43.684Z,70.87
2023-02-03T14:19:12.325Z,71.11
2023-02-03T14:21:42.571Z,71.00
2023-02-03T14:24:12.131Z,71.12
2023-02-03T14:26:41.666Z,71.38
2023-02-03T14:29:10.107Z,71.86
2023-02-03T14:31:40.170Z,71.80
2023-02-03T14:34:09.773Z,71.68
2023-02-03T14:36:39.829Z,71.75
2023-02-03T14:39:09.904Z,72.46
2023-02-03T14:41:37.099Z,72.42
2023-02-03T14:44:12.764Z,72.31
2023-02-03T14:46:41.300Z,71.91
2023-02-03T14:49:09.619Z,72.26
2023-02-03T14:51:39.634Z,72.29
2023-02-03T14:54:17.299Z,72.33
2023-02-03T14:56:50.259Z,72.74
2023-02-03T14:59:18.334Z,72.84
2023-02-03T15:01:45.817Z,72.89
2023-02-03T15:04:13.125Z,73.34
2023-02-03T15:06:42.267Z,73.19
2023-02-03T15:09:12.104Z,72.95
2023-02-03T15:11:44.485Z,72.93
2023-02-03T15:14:17.556Z,73.67
2023-02-03T15:16:46.365Z,74.75
2023-02-03T15:19:16.219Z,74.05
2023-02-03T15:21:43.122Z,74.07
2023-02-03T15:24:14.422Z,73.86
2023-02-03T15:26:44.453Z,74.59
2023-02-03T15:29:18.454Z,74.38
2023-02-03T15:31:49.147Z,74.13
2023-02-03T15:34:17.452Z,73.93
2023-02-03T15:36:48.433Z,73.71
2023-02-03T15:39:17.042Z,73.86
2023-02-03T15:41:45.506Z,74.80
2023-02-03T15:44:19.450Z,74.43
2023-02-03T15:46:52.060Z,74.15
2023-02-03T15:49:21.994Z,74.26
2023-02-03T15:51:52.099Z,74.05
2023-02-03T15:54:24.677Z,74.81
2023-02-03T15:56:57.604Z,74.99
2023-02-03T15:59:27.713Z,75.34
2023-02-03T16:01:54.813Z,75.17
2023-02-03T16:04:22.477Z,74.53
2023-02-03T16:06:50.618Z,74.84
2023-02-03T16:09:20.499Z,74.62
2023-02-03T16:11:47.690Z,74.66
2023-02-03T16:14:31.380Z,74.90
2023-02-03T16:17:05.481Z,74.60
2023-02-03T16:19:34.720Z,74.95
2023-02-03T16:22:01.582Z,75.19
2023-02-03T16:24:31.428Z,74.82
2023-02-03T16:27:01.452Z,74.79
2023-02-03T16:29:32.531Z,75.22
2023-02-03T16:32:02.692Z,75.54
2023-02-03T16:34:32.619Z,75.43
2023-02-03T16:37:02.732Z,75.30
2023-02-03T16:39:32.804Z,74.90
2023-02-03T16:42:03.105Z,74.97
2023-02-03T16:44:33.044Z,76.58
2023-02-03T16:47:03.679Z,80.46
2023-02-03T16:49:33.699Z,78.75
2023-02-03T16:52:02.105Z,77.42
2023-02-03T16:54:29.219Z,77.06
2023-02-03T16:56:58.713Z,76.21
2023-02-03T16:59:26.071Z,75.76
2023-02-03T17:01:52.960Z,75.41
2023-02-03T17:04:20.188Z,75.45
2023-02-03T17:06:51.346Z,76.26
2023-02-03T17:09:22.634Z,75.60
2023-02-03T17:11:50.535Z,76.26
2023-02-03T17:14:17.431Z,76.47
2023-02-03T17:16:44.502Z,76.25
2023-02-03T17:19:12.193Z,75.78
2023-02-03T17:21:41.264Z,76.22
2023-02-03T17:24:08.164Z,76.12
2023-02-03T17:26:34.998Z,75.92
2023-02-03T17:29:03.722Z,76.29
2023-02-03T17:31:31.561Z,76.18
2023-02-03T17:33:59.359Z,76.52
2023-02-03T17:36:26.394Z,76.61
2023-02-03T17:55:01.933Z,76.68
2023-02-03T17:57:28.775Z,76.35
2023-02-03T17:59:57.307Z,76.62
2023-02-03T18:02:24.143Z,76.25
2023-02-03T18:04:51.036Z,77.05
2023-02-03T18:07:17.837Z,76.88
2023-02-03T18:09:44.656Z,76.72
2023-02-03T18:12:11.428Z,77.25
2023-02-03T18:14:38.531Z,76.78
2023-02-03T18:17:05.309Z,76.82
2023-02-03T18:19:32.254Z,76.99
2023-02-03T18:22:00.486Z,76.83
2023-02-03T18:24:29.959Z,76.67
2023-02-03T18:26:57.284Z,77.09
2023-02-03T18:29:24.662Z,77.33
2023-02-03T18:31:51.569Z,77.45
2023-02-03T18:34:18.891Z,77.51
2023-02-03T18:36:45.827Z,77.16
2023-02-03T18:39:14.518Z,76.92
2023-02-03T18:41:41.573Z,77.39
2023-02-03T18:44:08.445Z,77.51
2023-02-03T18:46:35.252Z,77.49
2023-02-03T18:49:02.374Z,77.12
2023-02-03T18:51:29.233Z,77.68
2023-02-03T18:53:57.131Z,77.86
2023-02-03T18:56:25.478Z,77.45
2023-02-03T18:58:53.144Z,77.24
2023-02-03T19:01:23.057Z,77.56
2023-02-03T19:03:49.974Z,77.58
2023-02-03T19:06:16.986Z,77.38
2023-02-03T19:08:43.825Z,77.45
2023-02-03T19:11:11.226Z,77.41
2023-02-03T19:13:40.544Z,77.45
2023-02-03T19:16:07.665Z,77.62
2023-02-03T19:18:35.556Z,78.05
2023-02-03T19:21:02.401Z,78.16
2023-02-03T19:23:29.315Z,78.40
2023-02-03T19:25:56.155Z,78.28
2023-02-03T19:28:30.404Z,78.11
2023-02-03T19:31:08.189Z,78.51
2023-02-03T19:33:38.496Z,78.31
2023-02-03T19:36:05.661Z,78.54
2023-02-03T19:38:32.491Z,78.82
2023-02-03T19:41:01.813Z,78.80
2023-02-03T19:43:29.027Z,79.21
2023-02-03T19:45:56.208Z,79.13
2023-02-03T19:48:23.326Z,78.96
2023-02-03T19:50:50.249Z,79.10
2023-02-03T19:53:17.506Z,79.76
2023-02-03T19:55:45.197Z,79.28
2023-02-03T19:58:12.307Z,79.13
2023-02-03T20:00:39.730Z,79.31
2023-02-03T20:03:06.505Z,79.58
2023-02-03T20:05:34.063Z,79.33
2023-02-03T20:08:01.005Z,79.70
2023-02-03T20:10:28.463Z,79.31
2023-02-03T20:12:55.860Z,79.13
2023-02-03T20:15:22.630Z,78.92
2023-02-03T20:17:49.516Z,79.55
2023-02-03T20:20:26.831Z,79.36
2023-02-03T20:22:53.598Z,79.59
2023-02-03T20:25:20.482Z,79.81
2023-02-03T20:27:47.464Z,79.75
2023-02-03T20:30:14.416Z,79.87
2023-02-03T20:32:41.248Z,79.80
2023-02-03T20:35:08.884Z,79.98
2023-02-03T20:37:36.646Z,80.32
2023-02-03T20:40:06.562Z,80.49
2023-02-03T20:42:34.249Z,81.32
2023-02-03T20:45:01.150Z,81.81
2023-02-03T20:47:27.971Z,81.39
2023-02-03T20:49:55.745Z,81.08
2023-02-03T20:52:22.883Z,81.00
2023-02-03T20:54:49.766Z,81.23
2023-02-03T20:57:18.789Z,80.98
2023-02-03T20:59:46.286Z,81.99
2023-02-03T21:02:17.906Z,82.30
2023-02-03T21:04:48.094Z,82.13
2023-02-03T21:07:16.269Z,82.21
2023-02-03T21:09:43.091Z,82.06
2023-02-03T21:12:12.663Z,82.27
2023-02-03T21:14:42.412Z,82.27
2023-02-03T21:17:12.627Z,82.02
2023-02-03T21:19:39.414Z,82.04
2023-02-03T21:22:09.443Z,82.38
2023-02-03T21:24:38.367Z,82.47
2023-02-03T21:27:20.424Z,82.55
2023-02-03T21:29:47.309Z,82.50
2023-02-03T21:32:14.838Z,82.62
2023-02-03T21:34:43.581Z,82.58
2023-02-03T21:37:13.479Z,82.76
2023-02-03T21:39:41.511Z,83.23
2023-02-03T21:42:11.457Z,83.51
2023-02-03T21:44:38.576Z,83.60
2023-02-03T21:47:06.457Z,83.75
2023-02-03T21:49:34.267Z,83.75
2023-02-03T21:52:01.130Z,83.80
2023-02-03T21:54:30.525Z,83.93
2023-02-03T21:56:57.696Z,83.97
2023-02-03T21:59:28.555Z,84.41
2023-02-03T22:01:56.420Z,84.76
2023-02-03T22:04:25.687Z,85.04
2023-02-03T22:06:54.401Z,84.90
2023-02-03T22:09:22.204Z,85.29
2023-02-03T22:11:48.933Z,85.00
2023-02-03T22:14:16.720Z,85.59
2023-02-03T22:16:44.670Z,85.63
2023-02-03T22:19:11.588Z,85.85
2023-02-03T22:21:38.622Z,86.18
2023-02-03T22:24:05.951Z,85.94
2023-02-03T22:26:32.778Z,85.97
2023-02-03T22:28:59.832Z,85.95
2023-02-03T22:31:26.844Z,86.50
2023-02-03T22:33:53.860Z,86.49
2023-02-03T22:36:23.699Z,86.67
2023-02-03T22:38:50.599Z,86.58
2023-02-03T22:41:17.519Z,86.36
2023-02-03T22:43:44.505Z,86.01
2023-02-03T22:46:11.477Z,86.32
2023-02-03T22:48:38.337Z,86.77
2023-02-03T22:51:05.467Z,86.86
2023-02-03T22:53:32.829Z,86.73
2023-02-03T22:55:59.563Z,87.03
2023-02-03T22:58:26.475Z,87.15
2023-02-03T23:00:53.319Z,86.93
2023-02-03T23:03:20.053Z,87.01
2023-02-03T23:05:46.851Z,86.74
2023-02-03T23:08:14.229Z,86.71
2023-02-03T23:10:41.101Z,86.73
2023-02-03T23:13:08.371Z,86.86
2023-02-03T23:15:35.744Z,87.02
2023-02-03T23:18:02.573Z,87.12
2023-02-03T23:20:29.769Z,87.28
2023-02-03T23:22:56.893Z,87.30
2023-02-03T23:25:23.619Z,87.03
2023-02-03T23:27:50.445Z,87.35
2023-02-03T23:30:17.502Z,87.22
2023-02-03T23:32:44.640Z,87.27
2023-02-03T23:35:14.456Z,87.69
2023-02-03T23:37:41.140Z,87.51
2023-02-03T23:40:09.822Z,87.63
2023-02-03T23:42:36.557Z,87.39
2023-02-03T23:45:08.033Z,87.52
2023-02-03T23:47:35.334Z,87.36
2023-02-03T23:50:02.334Z,87.41
2023-02-03T23:52:35.678Z,87.38
2023-02-03T23:55:05.307Z,87.16
2023-02-03T23:57:32.057Z,87.02
2023-02-03T23:59:58.985Z,86.99
